Time,TemperatureF,DewpointF,PressureIn,WindDirection,WindDirectionDegrees,WindSpeedMPH,WindSpeedGustMPH,Humidity,HourlyPrecipIn,Conditions,Clouds,dailyrainin,SoftwareType,DateUTC
2013-05-16 00:02:00,59.0,40.0,29.73,NW,319,0.0,-999.0,49,-99.99,,,-99.99,,2013-05-16 04:02:00,
2013-05-16 00:12:00,59.0,40.0,29.73,NW,319,0.0,-999.0,49,-99.99,,,-99.99,,2013-05-16 04:12:00,
2013-05-16 00:23:00,59.0,39.0,29.74,NW,319,0.0,-999.0,48,-99.99,,,-99.99,,2013-05-16 04:23:00,
2013-05-16 00:33:00,58.0,38.0,29.74,NW,319,0.0,-999.0,48,-99.99,,,-99.99,,2013-05-16 04:33:00,
2013-05-16 00:42:00,58.0,38.0,29.74,NW,319,0.0,-999.0,48,-99.99,,,-99.99,,2013-05-16 04:42:00,
2013-05-16 00:53:00,59.0,39.0,29.74,NW,319,0.0,-999.0,47,-99.99,,,-99.99,,2013-05-16 04:53:00,
2013-05-16 01:02:00,59.0,39.0,29.75,NW,319,1.0,-999.0,47,-99.99,,,-99.99,,2013-05-16 05:02:00,
2013-05-16 01:12:00,59.0,39.0,29.75,NW,319,1.0,-999.0,47,-99.99,,,-99.99,,2013-05-16 05:12:00,
2013-05-16 01:22:00,58.0,39.0,29.75,NW,319,0.0,-999.0,49,-99.99,,,-99.99,,2013-05-16 05:22:00,
2013-05-16 01:32:00,57.0,39.0,29.76,NW,311,0.0,-999.0,50,-99.99,,,-99.99,,2013-05-16 05:32:00,
2013-05-16 01:42:00,57.0,39.0,29.76,NW,311,0.0,-999.0,50,-99.99,,,-99.99,,2013-05-16 05:42:00,
2013-05-16 01:52:00,57.0,38.0,29.76,NW,315,1.0,-999.0,49,-99.99,,,-99.99,,2013-05-16 05:52:00,
2013-05-16 02:01:00,57.0,39.0,29.76,NW,315,0.0,-999.0,50,-99.99,,,-99.99,,2013-05-16 06:01:00,
2013-05-16 02:12:00,57.0,39.0,29.76,NW,315,0.0,-999.0,50,-99.99,,,-99.99,,2013-05-16 06:12:00,
2013-05-16 02:22:00,57.0,39.0,29.76,NW,315,0.0,-999.0,51,-99.99,,,-99.99,,2013-05-16 06:22:00,
2013-05-16 02:33:00,55.0,39.0,29.77,NW,314,0.0,-999.0,54,-99.99,,,-99.99,,2013-05-16 06:33:00,
2013-05-16 02:43:00,55.0,39.0,29.77,NW,314,0.0,-999.0,54,-99.99,,,-99.99,,2013-05-16 06:43:00,
2013-05-16 02:52:00,54.0,40.0,29.77,NW,306,0.0,-999.0,58,-99.99,,,-99.99,,2013-05-16 06:52:00,
2013-05-16 03:02:00,52.0,39.0,29.78,North,355,1.0,-999.0,60,-99.99,,,-99.99,,2013-05-16 07:02:00,
2013-05-16 03:12:00,52.0,39.0,29.78,North,355,1.0,-999.0,60,-99.99,,,-99.99,,2013-05-16 07:12:00,
2013-05-16 03:24:00,52.0,39.0,29.78,NNE,26,2.0,-999.0,60,-99.99,,,-99.99,,2013-05-16 07:24:00,
2013-05-16 03:34:00,51.0,38.0,29.78,NNE,26,0.0,-999.0,62,-99.99,,,-99.99,,2013-05-16 07:34:00,
2013-05-16 03:44:00,51.0,38.0,29.78,NNE,26,0.0,-999.0,62,-99.99,,,-99.99,,2013-05-16 07:44:00,
2013-05-16 03:54:00,50.0,38.0,29.78,NNE,26,0.0,-999.0,64,-99.99,,,-99.99,,2013-05-16 07:54:00,
2013-05-16 04:03:00,49.0,38.0,29.79,NNE,26,0.0,-999.0,66,-99.99,,,-99.99,,2013-05-16 08:03:00,
2013-05-16 04:13:00,49.0,38.0,29.79,NNE,26,0.0,-999.0,66,-99.99,,,-99.99,,2013-05-16 08:13:00,
2013-05-16 04:24:00,48.0,38.0,29.80,NNE,26,0.0,-999.0,68,-99.99,,,-99.99,,2013-05-16 08:24:00,
2013-05-16 04:34:00,47.0,37.0,29.80,NNE,26,0.0,-999.0,69,-99.99,,,-99.99,,2013-05-16 08:34:00,
2013-05-16 04:45:00,47.0,37.0,29.80,NNE,26,0.0,-999.0,69,-99.99,,,-99.99,,2013-05-16 08:45:00,
2013-05-16 04:54:00,46.0,37.0,29.80,NNE,26,0.0,-999.0,71,-99.99,,,-99.99,,2013-05-16 08:54:00,
2013-05-16 05:04:00,45.0,37.0,29.81,NNE,26,0.0,-999.0,72,-99.99,,,-99.99,,2013-05-16 09:04:00,
2013-05-16 05:14:00,45.0,37.0,29.82,NNE,26,0.0,-999.0,73,-99.99,,,-99.99,,2013-05-16 09:14:00,
2013-05-16 05:24:00,45.0,37.0,29.82,NNE,26,0.0,-999.0,73,-99.99,,,-99.99,,2013-05-16 09:24:00,
2013-05-16 05:35:00,44.0,36.0,29.83,NNE,26,0.0,-999.0,74,-99.99,,,-99.99,,2013-05-16 09:35:00,
2013-05-16 05:45:00,44.0,36.0,29.83,NNE,26,0.0,-999.0,74,-99.99,,,-99.99,,2013-05-16 09:45:00,
2013-05-16 05:55:00,43.0,36.0,29.83,NNE,26,0.0,-999.0,75,-99.99,,,-99.99,,2013-05-16 09:55:00,
2013-05-16 06:05:00,42.0,35.0,29.84,NNE,26,0.0,-999.0,77,-99.99,,,-99.99,,2013-05-16 10:05:00,
2013-05-16 06:15:00,42.0,35.0,29.84,NNE,26,0.0,-999.0,77,-99.99,,,-99.99,,2013-05-16 10:15:00,
2013-05-16 06:24:00,41.0,35.0,29.85,NNE,26,0.0,-999.0,79,-99.99,,,-99.99,,2013-05-16 10:24:00,
2013-05-16 06:36:00,41.0,35.0,29.85,NNE,26,0.0,-999.0,80,-99.99,,,-99.99,,2013-05-16 10:36:00,
2013-05-16 06:45:00,41.0,35.0,29.85,NNE,26,0.0,-999.0,80,-99.99,,,-99.99,,2013-05-16 10:45:00,
2013-05-16 06:56:00,40.0,35.0,29.85,NNE,26,0.0,-999.0,82,-99.99,,,-99.99,,2013-05-16 10:56:00,
2013-05-16 07:05:00,40.0,35.0,29.87,NNE,26,0.0,-999.0,81,-99.99,,,-99.99,,2013-05-16 11:05:00,
2013-05-16 07:14:00,40.0,35.0,29.87,NNE,26,0.0,-999.0,81,-99.99,,,-99.99,,2013-05-16 11:14:00,
2013-05-16 07:25:00,39.0,34.0,29.88,NNE,26,0.0,-999.0,81,-99.99,,,-99.99,,2013-05-16 11:25:00,
2013-05-16 07:35:00,40.0,36.0,29.88,NNE,19,1.0,-999.0,84,-99.99,,,-99.99,,2013-05-16 11:35:00,
2013-05-16 07:46:00,40.0,36.0,29.88,NNE,19,1.0,-999.0,84,-99.99,,,-99.99,,2013-05-16 11:46:00,
2013-05-16 07:56:00,43.0,36.0,29.89,North,360,2.0,-999.0,76,-99.99,,,-99.99,,2013-05-16 11:56:00,
2013-05-16 08:06:00,46.0,37.0,29.89,NNE,16,4.0,-999.0,71,-99.99,,,-99.99,,2013-05-16 12:06:00,
2013-05-16 08:13:00,46.0,37.0,29.89,NNE,16,4.0,-999.0,71,-99.99,,,-99.99,,2013-05-16 12:13:00,
2013-05-16 08:23:00,48.0,38.0,29.90,North,360,4.0,-999.0,67,-99.99,,,-99.99,,2013-05-16 12:23:00,
2013-05-16 08:35:00,48.0,37.0,29.90,NNW,347,5.0,-999.0,65,-99.99,,,-99.99,,2013-05-16 12:35:00,
2013-05-16 08:45:00,48.0,37.0,29.90,NNW,347,5.0,-999.0,65,-99.99,,,-99.99,,2013-05-16 12:45:00,
2013-05-16 08:53:00,49.0,37.0,29.91,North,10,5.0,-999.0,63,-99.99,,,-99.99,,2013-05-16 12:53:00,
2013-05-16 09:04:00,51.0,38.0,29.91,NNE,13,3.0,-999.0,62,-99.99,,,-99.99,,2013-05-16 13:04:00,
2013-05-16 09:12:00,51.0,38.0,29.91,NNE,13,3.0,-999.0,62,-99.99,,,-99.99,,2013-05-16 13:12:00,
2013-05-16 09:26:00,51.0,38.0,29.92,NNE,22,4.0,-999.0,60,-99.99,,,-99.99,,2013-05-16 13:26:00,
2013-05-16 09:35:00,52.0,39.0,29.92,NNE,26,3.0,-999.0,60,-99.99,,,-99.99,,2013-05-16 13:35:00,
2013-05-16 09:43:00,52.0,39.0,29.92,NNE,26,3.0,-999.0,60,-99.99,,,-99.99,,2013-05-16 13:43:00,
2013-05-16 09:55:00,53.0,39.0,29.93,North,360,3.0,-999.0,58,-99.99,,,-99.99,,2013-05-16 13:55:00,
2013-05-16 10:05:00,53.0,38.0,29.93,North,355,5.0,-999.0,56,-99.99,,,-99.99,,2013-05-16 14:05:00,
2013-05-16 10:16:00,53.0,38.0,29.93,North,355,5.0,-999.0,56,-99.99,,,-99.99,,2013-05-16 14:16:00,
2013-05-16 10:23:00,54.0,38.0,29.94,NW,321,6.0,-999.0,54,-99.99,,,-99.99,,2013-05-16 14:23:00,
2013-05-16 10:37:00,55.0,36.0,29.95,NW,325,5.0,-999.0,49,-99.99,,,-99.99,,2013-05-16 14:37:00,
2013-05-16 10:47:00,55.0,36.0,29.95,NW,325,5.0,-999.0,49,-99.99,,,-99.99,,2013-05-16 14:47:00,
2013-05-16 10:55:00,55.0,35.0,29.95,North,5,8.0,-999.0,47,-99.99,,,-99.99,,2013-05-16 14:55:00,
2013-05-16 11:08:00,55.0,35.0,29.95,North,5,8.0,-999.0,46,-99.99,,,-99.99,,2013-05-16 15:08:00,
2013-05-16 11:17:00,55.0,35.0,29.95,North,5,8.0,-999.0,46,-99.99,,,-99.99,,2013-05-16 15:17:00,
2013-05-16 11:28:00,56.0,36.0,29.95,North,355,7.0,-999.0,46,-99.99,,,-99.99,,2013-05-16 15:28:00,
2013-05-16 11:40:00,57.0,35.0,29.94,NNW,346,8.0,-999.0,43,-99.99,,,-99.99,,2013-05-16 15:40:00,
2013-05-16 11:50:00,57.0,34.0,29.95,North,350,8.0,-999.0,41,-99.99,,,-99.99,,2013-05-16 15:50:00,
2013-05-16 12:00:00,57.0,34.0,29.95,North,350,8.0,-999.0,41,-99.99,,,-99.99,,2013-05-16 16:00:00,
2013-05-16 12:09:00,57.0,36.0,29.95,NE,47,7.0,-999.0,46,-99.99,,,-99.99,,2013-05-16 16:09:00,
2013-05-16 12:20:00,57.0,36.0,29.95,NE,47,7.0,-999.0,46,-99.99,,,-99.99,,2013-05-16 16:20:00,
2013-05-16 12:30:00,58.0,36.0,29.95,North,11,5.0,-999.0,44,-99.99,,,-99.99,,2013-05-16 16:30:00,
2013-05-16 12:40:00,58.0,-99.9,29.95,NNE,29,5.0,-999.0,45,-99.99,,,-99.99,,2013-05-16 16:40:00,
2013-05-16 12:50:00,58.0,37.0,29.95,NNE,29,5.0,-999.0,45,-99.99,,,-99.99,,2013-05-16 16:50:00,
2013-05-16 13:00:00,58.0,37.0,29.96,North,11,6.0,-999.0,45,-99.99,,,-99.99,,2013-05-16 17:00:00,
2013-05-16 13:10:00,58.0,37.0,29.96,ENE,71,4.0,-999.0,46,-99.99,,,-99.99,,2013-05-16 17:10:00,
2013-05-16 13:20:00,58.0,37.0,29.96,ENE,71,4.0,-999.0,46,-99.99,,,-99.99,,2013-05-16 17:20:00,
2013-05-16 13:30:00,59.0,38.0,29.96,NNE,28,4.0,-999.0,46,-99.99,,,-99.99,,2013-05-16 17:30:00,
2013-05-16 13:40:00,59.0,37.0,29.96,NNW,331,3.0,-999.0,44,-99.99,,,-99.99,,2013-05-16 17:40:00,
2013-05-16 13:50:00,59.0,-99.9,29.97,NNE,17,6.0,-999.0,45,-99.99,,,-99.99,,2013-05-16 17:50:00,
2013-05-16 14:00:00,59.0,-99.9,29.97,NNE,17,6.0,-999.0,45,-99.99,,,-99.99,,2013-05-16 18:00:00,
2013-05-16 14:10:00,60.0,38.0,29.96,NNW,329,6.0,-999.0,44,-99.99,,,-99.99,,2013-05-16 18:10:00,
2013-05-16 14:20:00,60.0,38.0,29.96,NNW,329,6.0,-999.0,44,-99.99,,,-99.99,,2013-05-16 18:20:00,
2013-05-16 14:30:00,-999.0,-99.9,29.96,NE,37,5.0,-999.0,45,-99.99,,,-99.99,,2013-05-16 18:30:00,
2013-05-16 14:40:00,-999.0,-99.9,29.97,North,355,5.0,-999.0,44,-99.99,,,-99.99,,2013-05-16 18:40:00,
2013-05-16 14:50:00,-999.0,-99.9,29.97,North,355,5.0,-999.0,44,-99.99,,,-99.99,,2013-05-16 18:50:00,
2013-05-16 15:00:00,-999.0,-99.9,29.97,NE,43,6.0,-999.0,47,-99.99,,,-99.99,,2013-05-16 19:00:00,
2013-05-16 15:10:00,58.0,39.0,29.97,East,90,5.0,-999.0,49,-99.99,,,-99.99,,2013-05-16 19:10:00,
2013-05-16 15:20:00,58.0,39.0,29.97,East,90,5.0,-999.0,49,-99.99,,,-99.99,,2013-05-16 19:20:00,
2013-05-16 15:30:00,58.0,39.0,29.97,East,86,5.0,-999.0,50,-99.99,,,-99.99,,2013-05-16 19:30:00,
2013-05-16 15:40:00,58.0,-99.9,29.97,ESE,116,6.0,-999.0,51,-99.99,,,-99.99,,2013-05-16 19:40:00,
2013-05-16 15:50:00,-999.0,-99.9,29.97,ESE,116,6.0,-999.0,51,-99.99,,,-99.99,,2013-05-16 19:50:00,
2013-05-16 16:00:00,57.0,-99.9,29.98,East,80,6.0,-999.0,51,-99.99,,,-99.99,,2013-05-16 20:00:00,
2013-05-16 16:10:00,-999.0,-99.9,29.98,SE,124,6.0,-999.0,52,-99.99,,,-99.99,,2013-05-16 20:10:00,
2013-05-16 16:20:00,57.0,-99.9,29.98,ENE,78,6.0,-999.0,50,-99.99,,,-99.99,,2013-05-16 20:20:00,
2013-05-16 16:30:00,57.0,39.0,29.98,ENE,78,6.0,-999.0,50,-99.99,,,-99.99,,2013-05-16 20:30:00,
2013-05-16 16:40:00,-999.0,-99.9,29.98,ENE,58,6.0,-999.0,51,-99.99,,,-99.99,,2013-05-16 20:40:00,
2013-05-16 16:50:00,56.0,38.0,29.98,East,85,7.0,-999.0,51,-99.99,,,-99.99,,2013-05-16 20:50:00,
2013-05-16 17:00:00,56.0,38.0,29.98,East,85,7.0,-999.0,51,-99.99,,,-99.99,,2013-05-16 21:00:00,
2013-05-16 17:10:00,57.0,-99.9,29.98,ENE,76,6.0,-999.0,52,-99.99,,,-99.99,,2013-05-16 21:10:00,
2013-05-16 17:20:00,57.0,-99.9,29.98,ENE,76,6.0,-999.0,52,-99.99,,,-99.99,,2013-05-16 21:20:00,
2013-05-16 17:29:00,56.0,39.0,29.98,NNE,24,5.0,-999.0,53,-99.99,,,-99.99,,2013-05-16 21:29:00,
2013-05-16 17:38:00,56.0,39.0,29.99,East,81,5.0,-999.0,53,-99.99,,,-99.99,,2013-05-16 21:38:00,
2013-05-16 17:50:00,56.0,-99.9,29.99,East,81,5.0,-999.0,53,-99.99,,,-99.99,,2013-05-16 21:50:00,
2013-05-16 18:00:00,-999.0,-99.9,29.99,NE,35,5.0,-999.0,52,-99.99,,,-99.99,,2013-05-16 22:00:00,
2013-05-16 18:08:00,55.0,39.0,30.00,NE,38,5.0,-999.0,54,-99.99,,,-99.99,,2013-05-16 22:08:00,
2013-05-16 18:21:00,55.0,39.0,30.00,NE,38,5.0,-999.0,54,-99.99,,,-99.99,,2013-05-16 22:21:00,
2013-05-16 18:30:00,54.0,38.0,30.00,NE,44,5.0,-999.0,54,-99.99,,,-99.99,,2013-05-16 22:30:00,
2013-05-16 18:40:00,53.0,38.0,30.00,NE,50,6.0,-999.0,56,-99.99,,,-99.99,,2013-05-16 22:40:00,
2013-05-16 18:50:00,53.0,38.0,30.00,NE,50,6.0,-999.0,56,-99.99,,,-99.99,,2013-05-16 22:50:00,
2013-05-16 19:00:00,54.0,38.0,30.01,NNE,15,6.0,-999.0,55,-99.99,,,-99.99,,2013-05-16 23:00:00,
2013-05-16 19:06:00,54.0,38.0,30.01,NNE,29,5.0,-999.0,55,-99.99,,,-99.99,,2013-05-16 23:06:00,
2013-05-16 19:16:00,54.0,38.0,30.01,NNE,29,5.0,-999.0,55,-99.99,,,-99.99,,2013-05-16 23:16:00,
2013-05-16 19:24:00,53.0,38.0,30.01,North,360,5.0,-999.0,56,-99.99,,,-99.99,,2013-05-16 23:24:00,
2013-05-16 19:35:00,52.0,38.0,30.01,NE,55,5.0,-999.0,58,-99.99,,,-99.99,,2013-05-16 23:35:00,
2013-05-16 19:45:00,52.0,38.0,30.01,NE,55,5.0,-999.0,58,-99.99,,,-99.99,,2013-05-16 23:45:00,
2013-05-16 19:54:00,51.0,37.0,30.02,NNE,24,8.0,-999.0,58,-99.99,,,-99.99,,2013-05-16 23:54:00,
2013-05-16 20:02:00,51.0,38.0,30.03,East,84,4.0,-999.0,60,-99.99,,,-99.99,,2013-05-17 00:02:00,
2013-05-16 20:13:00,51.0,38.0,30.03,East,84,4.0,-999.0,60,-99.99,,,-99.99,,2013-05-17 00:13:00,
2013-05-16 20:22:00,51.0,38.0,30.03,NE,40,5.0,-999.0,61,-99.99,,,-99.99,,2013-05-17 00:22:00,
2013-05-16 20:33:00,50.0,37.0,30.03,NNE,32,5.0,-999.0,61,-99.99,,,-99.99,,2013-05-17 00:33:00,
2013-05-16 20:43:00,50.0,37.0,30.03,NNE,32,5.0,-999.0,61,-99.99,,,-99.99,,2013-05-17 00:43:00,
2013-05-16 20:52:00,50.0,38.0,30.03,NE,39,3.0,-999.0,62,-99.99,,,-99.99,,2013-05-17 00:52:00,
2013-05-16 21:03:00,49.0,37.0,30.03,NNE,28,4.0,-999.0,64,-99.99,,,-99.99,,2013-05-17 01:03:00,
2013-05-16 21:12:00,49.0,37.0,30.03,NNE,28,4.0,-999.0,64,-99.99,,,-99.99,,2013-05-17 01:12:00,
2013-05-16 21:23:00,48.0,36.0,30.05,NE,40,2.0,-999.0,64,-99.99,,,-99.99,,2013-05-17 01:23:00,
2013-05-16 21:32:00,47.0,37.0,30.06,ESE,103,2.0,-999.0,67,-99.99,,,-99.99,,2013-05-17 01:32:00,
2013-05-16 21:43:00,47.0,37.0,30.06,ESE,103,2.0,-999.0,67,-99.99,,,-99.99,,2013-05-17 01:43:00,
2013-05-16 21:52:00,46.0,36.0,30.06,ESE,105,0.0,-999.0,69,-99.99,,,-99.99,,2013-05-17 01:52:00,
2013-05-16 22:02:00,45.0,36.0,30.06,ESE,104,0.0,-999.0,71,-99.99,,,-99.99,,2013-05-17 02:02:00,
2013-05-16 22:11:00,45.0,36.0,30.06,ESE,104,0.0,-999.0,71,-99.99,,,-99.99,,2013-05-17 02:11:00,
2013-05-16 22:22:00,44.0,36.0,30.07,ESE,102,0.0,-999.0,73,-99.99,,,-99.99,,2013-05-17 02:22:00,
2013-05-16 22:32:00,43.0,35.0,30.07,ESE,102,0.0,-999.0,74,-99.99,,,-99.99,,2013-05-17 02:32:00,
2013-05-16 22:42:00,43.0,35.0,30.07,ESE,102,0.0,-999.0,74,-99.99,,,-99.99,,2013-05-17 02:42:00,
2013-05-16 22:53:00,42.0,35.0,30.07,ESE,102,0.0,-999.0,77,-99.99,,,-99.99,,2013-05-17 02:53:00,
2013-05-16 23:02:00,42.0,36.0,30.07,ESE,102,0.0,-999.0,78,-99.99,,,-99.99,,2013-05-17 03:02:00,
2013-05-16 23:11:00,42.0,36.0,30.07,ESE,102,0.0,-999.0,78,-99.99,,,-99.99,,2013-05-17 03:11:00,
2013-05-16 23:22:00,41.0,35.0,30.08,ESE,102,0.0,-999.0,79,-99.99,,,-99.99,,2013-05-17 03:22:00,
2013-05-16 23:34:00,40.0,35.0,30.08,ESE,102,0.0,-999.0,81,-99.99,,,-99.99,,2013-05-17 03:34:00,
2013-05-16 23:43:00,40.0,35.0,30.08,ESE,102,0.0,-999.0,81,-99.99,,,-99.99,,2013-05-17 03:43:00,
2013-05-16 23:53:00,40.0,35.0,30.08,ESE,102,0.0,-999.0,81,-99.99,,,-99.99,,2013-05-17 03:53:00,